aviador You're here:

KPQL Decoded Metar

PASCAGOULA in MS, USA
Report Time2017-07-26 03:53:00
UTC Time2017-07-26 04:43:01
Flight Rules vfr VFR
WindCalm
Visibility9999 m
Phenomena:N/A
Clouds:N/A
Expected CloudBase > 400 ft AGL from Temp-Dew spread
CeilingNone
Temp23°C (ISA +8)
Dew Point22°C (94% RH)
QNH1020 hPa
Density Alt1,066 ft
Elevation20 ft
Report Wrong Elevation
Raw Report
KPQL 260353Z AUTO 00000KT 7SM CLR 23/22 A3012 RMK AO2 SLP199
T02330222=

Extra information for KPQL:More info

Metar Taf Metar & Taf Last 4 Metars F.Rules Stats Wind Profile Meteogram Temp Stats Airport Information Weather charts Add Link Nearby VenuesMetar ALERT Operation Metar Decoded Social comments

AIRNAV info for KPQL